Time;durP1;ratioP1;P1;durP2;ratioP2;P2;SDS_P1;SDS_P2;PMS_P1;PMS_P2;Temp;Humidity;BMP_temperature;BMP_pressure;BME280_temperature;BME280_humidity;BME280_pressure;Samples;Min_cycle;Max_cycle;Signal;HPM_P1;HPM_P2
2023/07/21 00:00:15;;;;;;;5.63;4.43;;;;;;;-146.25;100.00;52137.06;2079881;28;38802;-75
2023/07/21 00:01:21;;;;;;;5.13;4.22;;;;;;;-146.25;100.00;52094.47;2071052;28;20053;-74
2023/07/21 00:02:23;;;;;;;6.80;5.38;;;;;;;-146.25;100.00;52155.31;2078665;28;31368;-72
2023/07/21 00:03:25;;;;;;;5.82;4.40;;;;;;;-146.25;100.00;52110.69;2088430;28;31919;-74
2023/07/21 00:04:27;;;;;;;5.93;4.82;;;;;;;-146.25;100.00;52128.94;2088154;28;39141;-75
2023/07/21 00:05:29;;;;;;;6.32;4.63;;;;;;;-146.25;100.00;52130.97;2088227;28;35503;-74
2023/07/21 00:06:31;;;;;;;5.47;4.65;;;;;;;-146.25;100.00;52112.72;2087995;28;20096;-74
2023/07/21 00:07:35;;;;;;;6.18;4.35;;;;;;;-146.25;100.00;52122.88;2086459;28;33734;-74
2023/07/21 00:08:37;;;;;;;7.00;4.60;;;;;;;-146.25;100.00;52135.03;2079396;28;34672;-74
2023/07/21 00:09:39;;;;;;;6.68;4.88;;;;;;;-146.25;100.00;52153.28;2079458;28;32319;-74
2023/07/21 00:10:43;;;;;;;6.45;4.95;;;;;;;-146.25;100.00;52143.13;2079091;28;36799;-74
2023/07/21 00:11:45;;;;;;;6.32;5.47;;;;;;;-146.25;100.00;52120.84;2079851;28;35652;-74
2023/07/21 00:12:47;;;;;;;7.65;5.63;;;;;;;-146.25;100.00;52149.22;2080113;28;27075;-74
2023/07/21 00:13:49;;;;;;;6.95;5.38;;;;;;;-146.25;100.00;52116.78;2079358;28;35071;-74
2023/07/21 00:14:52;;;;;;;6.65;5.00;;;;;;;-146.25;100.00;52159.34;2080228;28;21248;-72
2023/07/21 00:15:54;;;;;;;7.85;6.68;;;;;;;-146.25;100.00;52110.69;2079669;28;34549;-75
2023/07/21 00:16:58;;;;;;;9.75;7.22;;;;;;;-146.25;100.00;52141.13;2079213;28;38172;-75
2023/07/21 00:18:01;;;;;;;6.22;5.63;;;;;;;-146.25;100.00;52112.72;2079961;28;21009;-74
2023/07/21 00:19:03;;;;;;;7.18;6.38;;;;;;;-146.25;100.00;52102.59;2086719;28;38065;-74
2023/07/21 00:20:19;;;;;;;9.90;6.50;;;;;;;-146.25;100.00;52149.22;2087583;28;34534;-75
2023/07/21 00:21:22;;;;;;;7.60;6.53;;;;;;;-146.25;100.00;52120.84;2080517;28;20072;-74
2023/07/21 00:22:25;;;;;;;7.80;5.82;;;;;;;-146.25;100.00;52137.06;2081931;28;20089;-74
2023/07/21 00:23:27;;;;;;;6.80;5.70;;;;;;;-146.25;100.00;52126.91;2080088;28;20033;-74
2023/07/21 00:24:29;;;;;;;7.15;6.43;;;;;;;-146.25;100.00;52143.13;2079242;28;37349;-74
2023/07/21 00:25:31;;;;;;;7.80;6.03;;;;;;;-146.25;100.00;52161.38;2079935;28;33886;-74
2023/07/21 00:26:35;;;;;;;7.82;5.20;;;;;;;-146.25;100.00;52141.13;2080453;28;20848;-75
2023/07/21 00:27:40;;;;;;;7.60;5.60;;;;;;;-146.25;100.00;52112.72;2079437;28;24168;-74
2023/07/21 00:28:43;;;;;;;6.68;5.30;;;;;;;-146.25;100.00;52139.09;2070140;28;32169;-74
2023/07/21 00:29:45;;;;;;;5.45;4.93;;;;;;;-146.25;100.00;52141.13;2063241;28;27244;-74
2023/07/21 00:30:47;;;;;;;7.65;4.57;;;;;;;-146.25;100.00;52090.44;2063274;28;22818;-75
2023/07/21 00:31:49;;;;;;;7.90;4.63;;;;;;;-146.25;100.00;52124.91;2063264;28;29308;-74
2023/07/21 00:32:54;;;;;;;5.15;4.63;;;;;;;-146.25;100.00;52177.59;2071496;28;20050;-74
2023/07/21 00:33:55;;;;;;;5.50;4.82;;;;;;;-146.25;100.00;52118.81;2063515;28;20047;-74
2023/07/21 00:34:57;;;;;;;7.93;5.65;;;;;;;-146.25;100.00;52149.22;2070871;28;33461;-74
2023/07/21 00:35:59;;;;;;;5.32;4.75;;;;;;;-146.25;100.00;52116.78;2077213;28;28865;-75
2023/07/21 00:37:01;;;;;;;6.55;4.93;;;;;;;-146.25;100.00;52128.94;2071331;28;22211;-75
2023/07/21 00:38:03;;;;;;;10.02;5.57;;;;;;;-146.25;100.00;52169.50;2079023;28;29453;-74
2023/07/21 00:39:04;;;;;;;7.20;5.63;;;;;;;-146.25;100.00;52133.00;2080381;28;20191;-74
2023/07/21 00:40:09;;;;;;;7.70;6.20;;;;;;;-146.25;100.00;52143.13;2080124;28;26275;-74
2023/07/21 00:41:12;;;;;;;9.25;6.13;;;;;;;-146.25;100.00;52100.56;2079894;28;35702;-74
2023/07/21 00:42:14;;;;;;;6.20;4.93;;;;;;;-146.25;100.00;52153.28;2080581;28;20045;-75
2023/07/21 00:43:18;;;;;;;6.85;5.75;;;;;;;-146.25;100.00;52155.31;2087318;28;20159;-74
2023/07/21 00:44:20;;;;;;;7.90;5.72;;;;;;;-146.25;100.00;52137.06;2087674;28;20905;-74
2023/07/21 00:45:22;;;;;;;7.25;5.70;;;;;;;-146.25;100.00;52169.50;2087718;28;20735;-74
2023/07/21 00:46:24;;;;;;;7.90;5.38;;;;;;;-146.25;100.00;52135.03;2087431;28;36782;-74
2023/07/21 00:47:28;;;;;;;5.82;5.20;;;;;;;-146.25;100.00;52122.88;2079728;28;20966;-75
2023/07/21 00:48:31;;;;;;;7.13;5.47;;;;;;;-146.25;100.00;52137.06;2071828;28;23748;-74
2023/07/21 00:49:34;;;;;;;5.47;4.95;;;;;;;-146.25;100.00;52169.50;2079148;28;29089;-75
2023/07/21 00:50:45;;;;;;;6.72;4.90;;;;;;;-146.25;100.00;52161.38;2079545;28;20405;-74
2023/07/21 00:51:48;;;;;;;7.47;5.28;;;;;;;-146.25;100.00;52116.78;2079275;28;21629;-74
2023/07/21 00:52:50;;;;;;;5.13;4.57;;;;;;;-146.25;100.00;52120.84;2079189;28;27286;-74
2023/07/21 00:53:52;;;;;;;5.25;4.43;;;;;;;-146.25;100.00;52141.13;2071481;28;32223;-75
2023/07/21 00:54:54;;;;;;;6.25;4.72;;;;;;;-146.25;100.00;52153.28;2079124;28;30315;-74
2023/07/21 00:55:56;;;;;;;7.60;5.00;;;;;;;-146.25;100.00;52106.66;2070258;28;28174;-74
2023/07/21 00:56:58;;;;;;;6.90;4.18;;;;;;;-146.25;100.00;52167.47;2063101;28;24802;-74
2023/07/21 00:58:00;;;;;;;6.43;4.45;;;;;;;-146.25;100.00;52141.13;2079397;28;25281;-75
2023/07/21 00:59:03;;;;;;;6.05;4.53;;;;;;;-146.25;100.00;52167.47;2079948;28;24149;-75
2023/07/21 01:00:10;;;;;;;6.63;4.55;;;;;;;-146.25;100.00;52165.44;2079540;28;20089;-74
2023/07/21 01:01:13;;;;;;;4.75;3.83;;;;;;;-146.25;100.00;52126.91;2071599;28;23157;-74
2023/07/21 01:02:14;;;;;;;6.40;4.60;;;;;;;-146.25;100.00;52130.97;2079693;28;20041;-74
2023/07/21 01:03:19;;;;;;;8.32;5.82;;;;;;;-146.25;100.00;52108.66;2079673;28;32991;-74
2023/07/21 01:04:22;;;;;;;6.05;5.07;;;;;;;-146.25;100.00;52139.09;2071236;28;20055;-74
2023/07/21 01:05:25;;;;;;;6.93;5.28;;;;;;;-146.25;100.00;52143.13;2072545;28;20124;-74
2023/07/21 01:06:27;;;;;;;5.72;5.13;;;;;;;-146.25;100.00;52149.22;2087517;28;34040;-74
2023/07/21 01:07:34;;;;;;;8.23;5.80;;;;;;;-146.25;100.00;52153.28;2080165;28;20115;-74
2023/07/21 01:08:37;;;;;;;7.55;5.32;;;;;;;-146.25;100.00;52098.53;2078836;28;35902;-75
2023/07/21 01:09:42;;;;;;;7.25;5.72;;;;;;;-146.25;100.00;52133.00;2062806;28;28835;-74
2023/07/21 01:10:44;;;;;;;9.23;6.18;;;;;;;-146.25;100.00;52157.34;2071809;28;27349;-75
2023/07/21 01:11:49;;;;;;;8.68;5.22;;;;;;;-146.25;100.00;52128.94;2079316;28;21438;-75
2023/07/21 01:12:50;;;;;;;6.85;4.50;;;;;;;-146.25;100.00;52124.91;2079247;28;27512;-74
2023/07/21 01:13:55;;;;;;;5.53;4.40;;;;;;;-146.25;100.00;52161.38;2070599;28;33208;-74
2023/07/21 01:14:58;;;;;;;4.85;4.32;;;;;;;-146.25;100.00;52133.00;2072029;28;23419;-74
2023/07/21 01:16:01;;;;;;;6.40;4.65;;;;;;;-146.25;100.00;52141.13;2079452;28;21045;-75
2023/07/21 01:17:08;;;;;;;6.78;4.43;;;;;;;-146.25;100.00;52130.97;2072178;28;20130;-75
2023/07/21 01:18:14;;;;;;;8.18;4.50;;;;;;;-146.25;100.00;52175.56;2079616;28;26586;-75
2023/07/21 01:19:17;;;;;;;4.95;4.35;;;;;;;-146.25;100.00;52145.16;2078709;28;33043;-74
2023/07/21 01:20:27;;;;;;;5.60;5.00;;;;;;;-146.25;100.00;52141.13;2079663;28;20088;-74
2023/07/21 01:21:49;;;;;;;7.03;4.65;;;;;;;-146.25;100.00;52153.28;2079629;28;20545;-74
2023/07/21 01:23:48;;;;;;;7.55;4.68;;;;;;;-146.25;100.00;52137.06;2074436;28;27961;-74
2023/07/21 01:24:54;;;;;;;4.93;3.92;;;;;;;-146.25;100.00;52157.34;2087130;28;20038;-74
2023/07/21 01:25:58;;;;;;;6.72;5.28;;;;;;;-146.25;100.00;52143.13;2086755;28;28106;-75
2023/07/21 01:27:01;;;;;;;8.77;5.22;;;;;;;-146.25;100.00;52151.25;2076039;28;27448;-75
2023/07/21 01:28:07;;;;;;;7.47;5.15;;;;;;;-146.25;100.00;52137.06;2070736;28;38263;-75
2023/07/21 01:29:09;;;;;;;5.97;5.20;;;;;;;-146.25;100.00;52137.06;2072262;28;27550;-75
2023/07/21 01:30:14;;;;;;;7.35;6.10;;;;;;;-146.25;100.00;52143.13;2080088;28;20042;-75
2023/07/21 01:31:19;;;;;;;6.28;5.45;;;;;;;-146.25;100.00;52112.72;2071121;28;20097;-75
2023/07/21 01:32:26;;;;;;;7.32;6.25;;;;;;;-146.25;100.00;52112.72;2071303;28;24368;-75
2023/07/21 01:33:30;;;;;;;7.18;5.88;;;;;;;-146.25;100.00;52153.28;2070931;28;28228;-75
2023/07/21 01:34:34;;;;;;;7.70;5.78;;;;;;;-146.25;100.00;52157.34;2079047;28;30416;-75
2023/07/21 01:35:36;;;;;;;8.10;6.70;;;;;;;-146.25;100.00;52149.22;2079583;28;20197;-74
2023/07/21 01:36:39;;;;;;;10.63;7.93;;;;;;;-146.25;100.00;52151.25;2071275;28;23740;-75
2023/07/21 01:37:45;;;;;;;10.07;8.15;;;;;;;-146.25;100.00;52149.22;2072429;28;24394;-75
2023/07/21 01:38:48;;;;;;;12.30;9.15;;;;;;;-146.25;100.00;52126.91;2065409;28;20699;-75
2023/07/21 01:39:52;;;;;;;10.82;7.63;;;;;;;-146.25;100.00;52193.81;2072496;28;21053;-74
2023/07/21 01:40:54;;;;;;;12.35;8.23;;;;;;;-146.25;100.00;52124.91;2077834;28;23719;-74
2023/07/21 01:41:59;;;;;;;11.23;8.48;;;;;;;-146.25;100.00;52139.09;2080191;28;29789;-74
2023/07/21 01:43:01;;;;;;;8.55;7.65;;;;;;;-146.25;100.00;52149.22;2072790;28;31771;-75
2023/07/21 01:44:03;;;;;;;10.43;7.78;;;;;;;-146.25;100.00;52163.41;2072490;28;26269;-74
2023/07/21 01:45:07;;;;;;;10.20;8.75;;;;;;;-146.25;100.00;52151.25;2063981;28;35913;-75
2023/07/21 01:46:10;;;;;;;11.15;9.10;;;;;;;-146.25;100.00;52161.38;2072484;28;26611;-75
2023/07/21 01:47:12;;;;;;;12.05;9.82;;;;;;;-146.25;100.00;52159.34;2080578;28;22424;-74
2023/07/21 01:48:14;;;;;;;11.20;9.95;;;;;;;-146.25;100.00;52124.91;2080643;28;28843;-75
2023/07/21 01:49:19;;;;;;;12.38;9.43;;;;;;;-146.25;100.00;52124.91;2080888;28;20844;-75
2023/07/21 01:50:21;;;;;;;10.50;9.10;;;;;;;-146.25;100.00;52155.31;2082671;28;33043;-75
2023/07/21 01:51:24;;;;;;;12.65;9.07;;;;;;;-146.25;100.00;52167.47;2081087;28;29508;-75
2023/07/21 01:52:30;;;;;;;9.88;7.97;;;;;;;-146.25;100.00;52171.53;2072305;28;32490;-75
2023/07/21 01:53:35;;;;;;;12.50;9.60;;;;;;;-146.25;100.00;52130.97;2072987;28;34630;-75
2023/07/21 01:54:46;;;;;;;9.75;7.90;;;;;;;-146.25;100.00;52141.13;2081814;28;20042;-75
2023/07/21 01:56:08;;;;;;;10.93;8.23;;;;;;;-146.25;100.00;52122.88;2082838;28;20173;-74
2023/07/21 01:57:16;;;;;;;11.05;8.38;;;;;;;-146.25;100.00;52128.94;2084456;28;20180;-74
2023/07/21 01:58:19;;;;;;;13.10;9.10;;;;;;;-146.25;100.00;52137.06;2088599;28;20065;-74
2023/07/21 01:59:26;;;;;;;10.30;7.65;;;;;;;-146.25;100.00;52143.13;2081088;28;20042;-74
2023/07/21 02:00:34;;;;;;;10.07;8.88;;;;;;;-146.25;100.00;52114.75;2077562;28;21061;-75
2023/07/21 02:01:56;;;;;;;12.35;8.88;;;;;;;-146.25;100.00;52139.09;2074834;28;29678;-75
2023/07/21 02:03:00;;;;;;;10.93;8.05;;;;;;;-146.25;100.00;52153.28;2076069;28;20041;-75
2023/07/21 02:04:03;;;;;;;9.70;7.72;;;;;;;-146.25;100.00;52133.00;2065636;28;20154;-75
2023/07/21 02:05:05;;;;;;;7.45;6.65;;;;;;;-146.25;100.00;52122.88;2072657;28;20038;-75
2023/07/21 02:06:15;;;;;;;10.80;7.30;;;;;;;-146.25;100.00;52116.78;2080932;28;20045;-75
2023/07/21 02:07:19;;;;;;;10.82;7.90;;;;;;;-146.25;100.00;52133.00;2085648;28;20111;-75
2023/07/21 02:08:24;;;;;;;12.50;9.52;;;;;;;-146.25;100.00;52135.03;2087329;28;20088;-74
2023/07/21 02:09:26;;;;;;;13.13;9.35;;;;;;;-146.25;100.00;52185.72;2080205;28;23693;-75
2023/07/21 02:10:29;;;;;;;10.95;8.82;;;;;;;-146.25;100.00;52116.78;2080442;28;33039;-74
2023/07/21 02:11:45;;;;;;;11.05;8.75;;;;;;;-146.25;100.00;52122.88;2072634;28;20882;-75
2023/07/21 02:13:13;;;;;;;13.25;8.88;;;;;;;-146.25;100.00;52157.34;2069223;28;20176;-75
2023/07/21 02:14:18;;;;;;;13.35;9.00;;;;;;;-146.25;100.00;52183.69;2076327;28;20740;-75
2023/07/21 02:15:20;;;;;;;11.05;9.30;;;;;;;-146.25;100.00;52153.28;2072419;28;26329;-75
2023/07/21 02:16:24;;;;;;;12.27;9.38;;;;;;;-146.25;100.00;52116.78;2072638;28;20923;-75
2023/07/21 02:17:26;;;;;;;10.82;9.07;;;;;;;-146.25;100.00;52161.38;2081018;28;23007;-76
2023/07/21 02:18:28;;;;;;;10.27;8.65;;;;;;;-146.25;100.00;52153.28;2080663;28;20034;-76
2023/07/21 02:19:30;;;;;;;9.93;8.43;;;;;;;-146.25;100.00;52133.00;2072499;28;20072;-75
2023/07/21 02:20:34;;;;;;;7.75;6.75;;;;;;;-146.25;100.00;52137.06;2063967;28;25042;-75
2023/07/21 02:21:35;;;;;;;13.15;9.05;;;;;;;-146.25;100.00;52159.34;2072447;28;29638;-75
2023/07/21 02:22:40;;;;;;;13.25;10.02;;;;;;;-146.25;100.00;52116.78;2081251;28;20053;-75
2023/07/21 02:23:42;;;;;;;21.98;10.60;;;;;;;-146.25;100.00;52151.25;2079859;28;32328;-72
2023/07/21 02:24:43;;;;;;;11.80;9.95;;;;;;;-146.25;100.00;52173.56;2080051;28;28900;-75
2023/07/21 02:25:45;;;;;;;9.88;7.60;;;;;;;-146.25;100.00;52165.44;2081404;28;20139;-75
2023/07/21 02:26:47;;;;;;;14.48;10.15;;;;;;;-146.25;100.00;52133.00;2080724;28;20160;-74
2023/07/21 02:27:49;;;;;;;10.02;7.90;;;;;;;-146.25;100.00;52161.38;2064116;28;26451;-75
2023/07/21 02:28:51;;;;;;;10.02;7.63;;;;;;;-146.25;100.00;52173.56;2064694;28;21003;-75
2023/07/21 02:29:54;;;;;;;13.57;9.18;;;;;;;-146.25;100.00;52179.63;2080143;28;20042;-75
2023/07/21 02:31:04;;;;;;;10.77;8.45;;;;;;;-146.25;100.00;52126.91;2072410;28;20042;-75
2023/07/21 02:32:07;;;;;;;8.98;7.47;;;;;;;-146.25;100.00;52189.78;2066331;28;24951;-76
2023/07/21 02:33:09;;;;;;;10.32;8.05;;;;;;;-146.25;100.00;52163.41;2071802;28;28150;-75
2023/07/21 02:34:13;;;;;;;9.07;8.10;;;;;;;-146.25;100.00;52151.25;2073029;28;20050;-75
2023/07/21 02:35:15;;;;;;;9.02;6.93;;;;;;;-146.25;100.00;52185.72;2080093;28;32133;-75
2023/07/21 02:36:19;;;;;;;8.70;7.00;;;;;;;-146.25;100.00;52157.34;2081083;28;31119;-76
2023/07/21 02:37:23;;;;;;;10.10;7.15;;;;;;;-146.25;100.00;52159.34;2080696;28;26946;-76
2023/07/21 02:38:25;;;;;;;10.75;7.40;;;;;;;-146.25;100.00;52183.69;2080836;28;28051;-75
2023/07/21 02:39:27;;;;;;;10.40;7.72;;;;;;;-146.25;100.00;52193.81;2081199;28;20034;-75
2023/07/21 02:40:32;;;;;;;7.80;7.00;;;;;;;-146.25;100.00;52153.28;2079982;28;28143;-75
2023/07/21 02:41:36;;;;;;;8.77;7.35;;;;;;;-146.25;100.00;52153.28;2080043;28;20168;-74
2023/07/21 02:42:37;;;;;;;8.35;7.35;;;;;;;-146.25;100.00;52155.31;2072102;28;31284;-76
2023/07/21 02:43:39;;;;;;;8.20;7.40;;;;;;;-146.25;100.00;52159.34;2079686;28;33646;-75
2023/07/21 02:44:41;;;;;;;10.40;8.15;;;;;;;-146.25;100.00;52167.47;2081398;28;20045;-76
2023/07/21 02:45:54;;;;;;;9.10;7.20;;;;;;;-146.25;100.00;52137.06;2079880;28;27714;-75
2023/07/21 02:46:57;;;;;;;9.27;8.23;;;;;;;-146.25;100.00;52108.66;2080601;28;20760;-75
2023/07/21 02:47:59;;;;;;;10.80;8.57;;;;;;;-146.25;100.00;52141.13;2080417;28;20026;-75
2023/07/21 02:49:01;;;;;;;10.65;7.82;;;;;;;-146.25;100.00;52173.56;2071500;28;31985;-75
2023/07/21 02:50:09;;;;;;;12.02;7.68;;;;;;;-146.25;100.00;52171.53;2063975;28;20341;-75
2023/07/21 02:51:11;;;;;;;8.73;7.25;;;;;;;-146.25;100.00;52169.50;2073215;28;20923;-73
2023/07/21 02:52:19;;;;;;;8.95;7.53;;;;;;;-146.25;100.00;52149.22;2073548;28;20050;-75
2023/07/21 02:53:25;;;;;;;7.97;7.10;;;;;;;-146.25;100.00;52128.94;2072905;28;20054;-75
2023/07/21 02:54:32;;;;;;;10.25;7.70;;;;;;;-146.25;100.00;52181.66;2083227;28;21284;-75
2023/07/21 02:55:38;;;;;;;13.73;9.55;;;;;;;-146.25;100.00;52153.28;2081254;28;20038;-75
2023/07/21 02:56:41;;;;;;;9.50;8.50;;;;;;;-146.25;100.00;52155.31;2079600;28;20056;-75
2023/07/21 02:57:52;;;;;;;10.07;8.15;;;;;;;-146.25;100.00;52175.56;2072443;28;20034;-75
2023/07/21 02:59:02;;;;;;;12.18;8.10;;;;;;;-146.25;100.00;52149.22;2067770;28;20109;-75
2023/07/21 03:00:05;;;;;;;10.70;7.57;;;;;;;-146.25;100.00;52151.25;2073218;28;20132;-75
2023/07/21 03:01:15;;;;;;;10.95;7.53;;;;;;;-146.25;100.00;52128.94;2081891;28;20487;-75
2023/07/21 03:02:18;;;;;;;11.30;8.35;;;;;;;-146.25;100.00;52157.34;2080656;28;20045;-76
2023/07/21 03:03:25;;;;;;;9.32;7.60;;;;;;;-146.25;100.00;52161.38;2089450;28;20044;-76
2023/07/21 03:04:37;;;;;;;10.63;7.72;;;;;;;-146.25;100.00;52133.00;2088503;28;20045;-76
2023/07/21 03:05:41;;;;;;;10.93;7.10;;;;;;;-146.25;100.00;52169.50;2079688;28;24486;-75
2023/07/21 03:06:46;;;;;;;9.23;5.95;;;;;;;-146.25;100.00;52161.38;2088197;28;20942;-75
2023/07/21 03:07:48;;;;;;;10.15;7.20;;;;;;;-146.25;100.00;52145.16;2088961;28;20029;-76
2023/07/21 03:08:52;;;;;;;7.93;5.93;;;;;;;-146.25;100.00;52155.31;2079434;28;20093;-75
2023/07/21 03:10:00;;;;;;;9.23;6.72;;;;;;;-146.25;100.00;52133.00;2072881;28;20042;-75
2023/07/21 03:11:11;;;;;;;7.97;5.78;;;;;;;-146.25;100.00;52155.31;2080262;28;20049;-76
2023/07/21 03:12:22;;;;;;;9.95;6.57;;;;;;;-146.25;100.00;52165.44;2080254;28;20041;-75
2023/07/21 03:13:32;;;;;;;;;;;;;;;-146.25;100.00;52147.19;2088889;28;20073;-75
2023/07/21 03:14:34;;;;;;;7.18;5.53;;;;;;;-146.25;100.00;52153.28;2088600;28;19921;-75
2023/07/21 03:15:36;;;;;;;6.97;6.28;;;;;;;-146.25;100.00;52139.09;2088531;28;20038;-76
2023/07/21 03:16:43;;;;;;;7.90;6.18;;;;;;;-146.25;100.00;52155.31;2088047;28;21025;-75
2023/07/21 03:17:46;;;;;;;7.85;6.28;;;;;;;-146.25;100.00;52153.28;2080526;28;20176;-76
2023/07/21 03:18:50;;;;;;;9.00;6.28;;;;;;;-146.25;100.00;52193.81;2080888;28;20879;-75
2023/07/21 03:19:54;;;;;;;6.95;5.95;;;;;;;-146.25;100.00;52141.13;2080116;28;20136;-75
2023/07/21 03:20:59;;;;;;;7.75;5.75;;;;;;;-146.25;100.00;52159.34;2088511;28;20069;-75
2023/07/21 03:22:04;;;;;;;9.32;6.95;;;;;;;-146.25;100.00;52157.34;2088172;28;20050;-75
2023/07/21 03:23:07;;;;;;;8.52;7.43;;;;;;;-146.25;100.00;52165.44;2088886;28;20064;-75
2023/07/21 03:24:09;;;;;;;11.32;7.80;;;;;;;-146.25;100.00;52171.53;2079912;28;20069;-75
2023/07/21 03:25:13;;;;;;;11.13;9.20;;;;;;;-146.25;100.00;52163.41;2080892;28;21028;-75
2023/07/21 03:26:18;;;;;;;13.25;9.70;;;;;;;-146.25;100.00;52165.44;2088856;28;20041;-75
2023/07/21 03:27:20;;;;;;;11.98;9.32;;;;;;;-146.25;100.00;52133.00;2080640;28;20034;-75
2023/07/21 03:28:22;;;;;;;10.52;9.00;;;;;;;-146.25;100.00;52143.13;2077786;28;20085;-76
2023/07/21 03:29:27;;;;;;;13.07;9.18;;;;;;;-146.25;100.00;52149.22;2079823;28;20112;-76
2023/07/21 03:30:28;;;;;;;10.30;8.40;;;;;;;-146.25;100.00;52181.66;2072264;28;25539;-75
2023/07/21 03:31:39;;;;;;;14.25;9.23;;;;;;;-146.25;100.00;52141.13;2080164;28;20056;-75
2023/07/21 03:32:47;;;;;;;11.45;8.93;;;;;;;-146.25;100.00;52185.72;2082618;28;20987;-75
2023/07/21 03:33:49;;;;;;;9.15;7.28;;;;;;;-146.25;100.00;52191.81;2080047;28;21841;-75
2023/07/21 03:34:56;;;;;;;10.55;7.10;;;;;;;-146.25;100.00;52165.44;2080433;28;20848;-75
2023/07/21 03:36:01;;;;;;;10.07;8.38;;;;;;;-146.25;100.00;52195.84;2081001;28;20038;-75
2023/07/21 03:37:04;;;;;;;12.82;9.52;;;;;;;-146.25;100.00;52179.63;2088504;28;20053;-75
2023/07/21 03:38:06;;;;;;;12.70;9.95;;;;;;;-146.25;100.00;52116.78;2088380;28;20082;-75
2023/07/21 03:39:09;;;;;;;13.32;9.77;;;;;;;-146.25;100.00;52169.50;2096718;28;20033;-75
2023/07/21 03:40:11;;;;;;;15.55;11.57;;;;;;;-146.25;100.00;52191.81;2082348;28;26530;-75
2023/07/21 03:41:16;;;;;;;17.98;11.20;;;;;;;-146.25;100.00;52159.34;2079553;28;20189;-74
2023/07/21 03:42:19;;;;;;;16.52;11.57;;;;;;;-146.25;100.00;52157.34;2079933;28;20839;-73
2023/07/21 03:43:20;;;;;;;17.35;12.15;;;;;;;-146.25;100.00;52171.53;2071696;28;27704;-74
2023/07/21 03:44:22;;;;;;;15.88;12.63;;;;;;;-146.25;100.00;52151.25;2080060;28;20053;-74
2023/07/21 03:45:25;;;;;;;16.42;12.30;;;;;;;-146.25;100.00;52175.56;2088301;28;20950;-74
2023/07/21 03:46:27;;;;;;;17.90;11.25;;;;;;;-146.25;100.00;52167.47;2086948;28;31788;-76
2023/07/21 03:47:48;;;;;;;18.90;12.65;;;;;;;-146.25;100.00;52167.47;2088068;28;20049;-76
2023/07/21 03:48:50;;;;;;;17.00;11.98;;;;;;;-146.25;100.00;52169.50;2088899;28;20819;-75
2023/07/21 03:49:55;;;;;;;16.50;11.75;;;;;;;-146.25;100.00;52122.88;2079845;28;20037;-76
2023/07/21 03:51:03;;;;;;;16.75;11.13;;;;;;;-146.25;100.00;52145.16;2072408;28;20053;-75
2023/07/21 03:52:08;;;;;;;17.50;11.23;;;;;;;-146.25;100.00;52177.59;2081410;28;20037;-76
2023/07/21 03:53:12;;;;;;;13.90;11.23;;;;;;;-146.25;100.00;52161.38;2079011;28;20050;-76
2023/07/21 03:54:24;;;;;;;17.38;11.93;;;;;;;-146.25;100.00;52203.97;2074258;28;20049;-76
2023/07/21 03:55:25;;;;;;;15.57;11.48;;;;;;;-146.25;100.00;52169.50;2079219;28;23329;-76
2023/07/21 03:56:27;;;;;;;15.50;10.73;;;;;;;-146.25;100.00;52179.63;2071521;28;20093;-76
2023/07/21 03:57:29;;;;;;;15.55;11.43;;;;;;;-146.25;100.00;52193.81;2071456;28;20294;-76
2023/07/21 03:58:31;;;;;;;14.00;10.98;;;;;;;-146.25;100.00;52183.69;2071390;28;20041;-75
2023/07/21 03:59:33;;;;;;;12.25;10.20;;;;;;;-146.25;100.00;52177.59;2061900;28;20238;-76
2023/07/21 04:00:37;;;;;;;15.98;11.00;;;;;;;-146.25;100.00;52185.72;2055106;28;22987;-76
2023/07/21 04:01:40;;;;;;;15.60;10.82;;;;;;;-146.25;100.00;52145.16;2071967;28;20140;-74
2023/07/21 04:02:42;;;;;;;16.60;12.00;;;;;;;-146.25;100.00;52181.66;2071769;28;20035;-74
2023/07/21 04:03:43;;;;;;;16.17;11.70;;;;;;;-146.25;100.00;52165.44;2071860;28;20043;-74
2023/07/21 04:04:46;;;;;;;16.17;11.65;;;;;;;-146.25;100.00;52187.75;2071837;28;20038;-75
2023/07/21 04:05:48;;;;;;;11.55;9.52;;;;;;;-146.25;100.00;52179.63;2071159;28;33224;-76
2023/07/21 04:06:51;;;;;;;13.57;9.52;;;;;;;-146.25;100.00;52165.44;2080209;28;20034;-76
2023/07/21 04:07:52;;;;;;;11.95;9.65;;;;;;;-146.25;100.00;52165.44;2072160;28;24051;-75
2023/07/21 04:08:54;;;;;;;13.88;9.20;;;;;;;-146.25;100.00;52161.38;2071741;28;30405;-76
2023/07/21 04:09:58;;;;;;;13.43;9.60;;;;;;;-146.25;100.00;52177.59;2079998;28;20042;-76
2023/07/21 04:11:00;;;;;;;11.88;8.45;;;;;;;-146.25;100.00;52185.72;2079861;28;30224;-76
2023/07/21 04:12:06;;;;;;;14.23;9.63;;;;;;;-146.25;100.00;52149.22;2079173;28;29104;-76
2023/07/21 04:13:09;;;;;;;12.30;9.40;;;;;;;-146.25;100.00;52206.00;2085522;28;20042;-76
2023/07/21 04:14:11;;;;;;;9.02;7.53;;;;;;;-146.25;100.00;52210.03;2079949;28;20052;-76
2023/07/21 04:15:12;;;;;;;10.43;8.38;;;;;;;-146.25;100.00;52173.56;2080127;28;20041;-75
2023/07/21 04:16:17;;;;;;;9.70;7.80;;;;;;;-146.25;100.00;52189.78;2079995;28;30736;-75
2023/07/21 04:17:18;;;;;;;8.10;7.03;;;;;;;-146.25;100.00;52179.63;2079871;28;29859;-75
2023/07/21 04:18:24;;;;;;;8.20;6.97;;;;;;;-146.25;100.00;52201.94;2079930;28;25778;-75
2023/07/21 04:19:25;;;;;;;8.27;7.47;;;;;;;-146.25;100.00;52185.72;2072239;28;20300;-75
2023/07/21 04:20:30;;;;;;;7.95;6.10;;;;;;;-146.25;100.00;52185.72;2079862;28;20168;-75
2023/07/21 04:21:33;;;;;;;7.07;6.03;;;;;;;-146.25;100.00;52145.16;2071544;28;20050;-75
2023/07/21 04:22:36;;;;;;;7.03;5.57;;;;;;;-146.25;100.00;52203.97;2071780;28;20107;-75
2023/07/21 04:23:38;;;;;;;5.95;5.30;;;;;;;-146.25;100.00;52210.03;2080173;28;20297;-76
2023/07/21 04:24:40;;;;;;;6.47;5.10;;;;;;;-146.25;100.00;52181.66;2079937;28;20050;-75
2023/07/21 04:25:42;;;;;;;5.30;4.80;;;;;;;-146.25;100.00;52220.19;2079920;28;20811;-75
2023/07/21 04:26:44;;;;;;;6.47;4.68;;;;;;;-146.25;100.00;52195.84;2079467;28;33112;-75
2023/07/21 04:27:48;;;;;;;5.55;4.60;;;;;;;-146.25;100.00;52222.22;2071589;28;20093;-75
2023/07/21 04:28:51;;;;;;;4.95;3.60;;;;;;;-146.25;100.00;52210.03;2072032;28;20050;-74
2023/07/21 04:29:54;;;;;;;4.30;3.50;;;;;;;-146.25;100.00;52201.94;2079051;28;20053;-74
2023/07/21 04:30:56;;;;;;;5.32;3.85;;;;;;;-146.25;98.24;52220.19;2088024;28;20172;-75
2023/07/21 04:32:01;;;;;;;3.92;3.63;;;;;;;-146.25;92.64;52206.00;2079579;28;20050;-74
2023/07/21 04:33:03;;;;;;;5.13;3.60;;;;;;;-146.25;88.13;52191.81;2079445;28;23782;-74
2023/07/21 04:34:06;;;;;;;3.72;3.30;;;;;;;-146.25;81.18;52199.91;2080084;28;20089;-75
2023/07/21 04:35:10;;;;;;;7.07;4.07;;;;;;;-146.25;84.32;52214.09;2071873;28;20065;-73
2023/07/21 04:36:15;;;;;;;6.90;3.08;;;;;;;-146.25;83.70;52218.16;2079668;28;20038;-75
2023/07/21 04:37:17;;;;;;;4.82;3.38;;;;;;;-146.25;76.97;52218.16;2079903;28;20060;-77
2023/07/21 04:38:25;;;;;;;7.60;4.00;;;;;;;-146.25;79.83;52185.72;2079456;28;21021;-77
2023/07/21 04:39:33;;;;;;;4.50;2.95;;;;;;;-146.25;78.37;52183.69;2071575;28;20051;-76
2023/07/21 04:40:35;;;;;;;4.15;3.20;;;;;;;-146.25;74.73;52179.63;2063710;28;20043;-76
2023/07/21 04:41:37;;;;;;;4.13;3.28;;;;;;;-146.25;72.54;52181.66;2063137;28;20078;-74
2023/07/21 04:42:39;;;;;;;5.38;3.30;;;;;;;-146.25;72.84;52177.59;2063715;28;20050;-74
2023/07/21 04:43:41;;;;;;;4.00;3.05;;;;;;;-146.25;72.85;52183.69;2079216;28;36145;-76
2023/07/21 04:44:44;;;;;;;3.40;2.90;;;;;;;-146.25;73.31;52191.81;2079532;28;20045;-74
2023/07/21 04:45:46;;;;;;;4.25;3.20;;;;;;;-146.25;70.55;52191.81;2079945;28;20065;-74
2023/07/21 04:46:55;;;;;;;4.70;2.60;;;;;;;-146.25;69.13;52224.25;2079609;28;20049;-76
2023/07/21 04:48:05;;;;;;;4.87;3.10;;;;;;;-146.25;67.63;52161.38;2080089;28;20130;-75
2023/07/21 04:49:13;;;;;;;2.72;2.38;;;;;;;-146.25;66.73;52181.66;2071301;28;21208;-75
2023/07/21 04:50:20;;;;;;;3.65;2.75;;;;;;;-146.25;64.01;52191.81;2065318;28;20114;-75
2023/07/21 04:51:22;;;;;;;5.57;2.75;;;;;;;-146.25;65.02;52197.88;2071422;28;20173;-76